sensor_id;sensor_type;location;lat;lon;timestamp;temperature;humidity
8103;DHT22;4094;49.948;11.574;2023-09-18T00:00:17;22.10;65.10
8103;DHT22;4094;49.948;11.574;2023-09-18T00:02:50;22.10;65.00
8103;DHT22;4094;49.948;11.574;2023-09-18T00:05:19;22.10;65.20
8103;DHT22;4094;49.948;11.574;2023-09-18T00:07:50;22.10;65.20
8103;DHT22;4094;49.948;11.574;2023-09-18T00:10:20;22.00;65.20
8103;DHT22;4094;49.948;11.574;2023-09-18T00:12:49;22.00;65.30
8103;DHT22;4094;49.948;11.574;2023-09-18T00:15:18;22.00;65.40
8103;DHT22;4094;49.948;11.574;2023-09-18T00:17:47;22.00;65.40
8103;DHT22;4094;49.948;11.574;2023-09-18T00:20:17;21.90;65.40
8103;DHT22;4094;49.948;11.574;2023-09-18T00:22:47;22.00;65.50
8103;DHT22;4094;49.948;11.574;2023-09-18T00:25:17;21.90;65.50
8103;DHT22;4094;49.948;11.574;2023-09-18T00:27:46;21.90;65.50
8103;DHT22;4094;49.948;11.574;2023-09-18T00:30:15;21.90;65.50
8103;DHT22;4094;49.948;11.574;2023-09-18T00:32:44;21.90;65.60
8103;DHT22;4094;49.948;11.574;2023-09-18T00:35:16;21.90;65.70
8103;DHT22;4094;49.948;11.574;2023-09-18T00:37:46;21.80;65.70
8103;DHT22;4094;49.948;11.574;2023-09-18T00:40:15;21.90;65.90
8103;DHT22;4094;49.948;11.574;2023-09-18T00:42:44;21.80;65.90
8103;DHT22;4094;49.948;11.574;2023-09-18T00:45:14;21.80;65.90
8103;DHT22;4094;49.948;11.574;2023-09-18T00:47:44;21.80;65.90
8103;DHT22;4094;49.948;11.574;2023-09-18T00:50:14;21.80;66.00
8103;DHT22;4094;49.948;11.574;2023-09-18T00:52:44;21.80;66.00
8103;DHT22;4094;49.948;11.574;2023-09-18T00:55:14;21.80;66.10
8103;DHT22;4094;49.948;11.574;2023-09-18T00:57:44;21.80;66.10
8103;DHT22;4094;49.948;11.574;2023-09-18T01:00:14;21.80;66.20
8103;DHT22;4094;49.948;11.574;2023-09-18T01:02:45;21.80;66.00
8103;DHT22;4094;49.948;11.574;2023-09-18T01:05:16;21.70;66.00
8103;DHT22;4094;49.948;11.574;2023-09-18T01:07:47;21.70;66.10
8103;DHT22;4094;49.948;11.574;2023-09-18T01:10:16;21.70;66.20
8103;DHT22;4094;49.948;11.574;2023-09-18T01:12:48;21.70;66.20
8103;DHT22;4094;49.948;11.574;2023-09-18T01:15:22;21.60;66.20
8103;DHT22;4094;49.948;11.574;2023-09-18T01:17:55;21.60;66.30
8103;DHT22;4094;49.948;11.574;2023-09-18T01:20:25;21.60;66.30
8103;DHT22;4094;49.948;11.574;2023-09-18T01:22:57;21.60;66.50
8103;DHT22;4094;49.948;11.574;2023-09-18T01:25:26;21.60;66.50
8103;DHT22;4094;49.948;11.574;2023-09-18T01:27:55;21.50;66.50
8103;DHT22;4094;49.948;11.574;2023-09-18T01:30:25;21.50;66.50
8103;DHT22;4094;49.948;11.574;2023-09-18T01:32:54;21.50;66.60
8103;DHT22;4094;49.948;11.574;2023-09-18T01:35:25;21.50;66.60
8103;DHT22;4094;49.948;11.574;2023-09-18T01:38:00;21.50;66.70
8103;DHT22;4094;49.948;11.574;2023-09-18T01:40:30;21.40;66.70
8103;DHT22;4094;49.948;11.574;2023-09-18T01:43:00;21.40;66.70
8103;DHT22;4094;49.948;11.574;2023-09-18T01:45:29;21.40;66.70
8103;DHT22;4094;49.948;11.574;2023-09-18T01:48:00;21.40;66.70
8103;DHT22;4094;49.948;11.574;2023-09-18T01:50:29;21.40;66.80
8103;DHT22;4094;49.948;11.574;2023-09-18T01:53:01;21.30;66.80
8103;DHT22;4094;49.948;11.574;2023-09-18T01:55:31;21.30;66.90
8103;DHT22;4094;49.948;11.574;2023-09-18T01:58:00;21.30;66.90
8103;DHT22;4094;49.948;11.574;2023-09-18T02:00:32;21.30;67.00
8103;DHT22;4094;49.948;11.574;2023-09-18T02:03:02;21.30;67.00
8103;DHT22;4094;49.948;11.574;2023-09-18T02:05:52;21.20;67.10
8103;DHT22;4094;49.948;11.574;2023-09-18T02:08:25;21.20;67.20
8103;DHT22;4094;49.948;11.574;2023-09-18T02:10:55;21.20;67.40
8103;DHT22;4094;49.948;11.574;2023-09-18T02:13:24;21.20;67.50
8103;DHT22;4094;49.948;11.574;2023-09-18T02:15:53;21.20;67.70
8103;DHT22;4094;49.948;11.574;2023-09-18T02:18:22;21.20;67.70
8103;DHT22;4094;49.948;11.574;2023-09-18T02:20:51;21.30;67.80
8103;DHT22;4094;49.948;11.574;2023-09-18T02:23:20;21.30;67.80
8103;DHT22;4094;49.948;11.574;2023-09-18T02:25:56;21.30;67.70
8103;DHT22;4094;49.948;11.574;2023-09-18T02:28:25;21.40;67.80
8103;DHT22;4094;49.948;11.574;2023-09-18T02:30:55;21.40;67.60
8103;DHT22;4094;49.948;11.574;2023-09-18T02:33:23;21.40;67.60
8103;DHT22;4094;49.948;11.574;2023-09-18T02:35:52;21.40;67.40
8103;DHT22;4094;49.948;11.574;2023-09-18T02:38:21;21.40;67.30
8103;DHT22;4094;49.948;11.574;2023-09-18T02:40:52;21.40;67.40
8103;DHT22;4094;49.948;11.574;2023-09-18T02:43:23;21.30;67.30
8103;DHT22;4094;49.948;11.574;2023-09-18T02:45:52;21.30;67.30
8103;DHT22;4094;49.948;11.574;2023-09-18T02:48:21;21.30;67.30
8103;DHT22;4094;49.948;11.574;2023-09-18T02:50:51;21.30;67.20
8103;DHT22;4094;49.948;11.574;2023-09-18T02:53:22;21.30;67.30
8103;DHT22;4094;49.948;11.574;2023-09-18T02:55:52;21.30;67.30
8103;DHT22;4094;49.948;11.574;2023-09-18T02:58:23;21.20;67.20
8103;DHT22;4094;49.948;11.574;2023-09-18T03:00:56;21.20;67.30
8103;DHT22;4094;49.948;11.574;2023-09-18T03:03:26;21.20;67.40
8103;DHT22;4094;49.948;11.574;2023-09-18T03:06:00;21.20;67.40
8103;DHT22;4094;49.948;11.574;2023-09-18T03:08:30;21.10;67.40
8103;DHT22;4094;49.948;11.574;2023-09-18T03:11:00;21.10;67.40
8103;DHT22;4094;49.948;11.574;2023-09-18T03:13:31;21.10;67.40
8103;DHT22;4094;49.948;11.574;2023-09-18T03:16:00;21.10;67.60
8103;DHT22;4094;49.948;11.574;2023-09-18T03:18:29;21.00;67.50
8103;DHT22;4094;49.948;11.574;2023-09-18T03:20:58;21.00;67.50
8103;DHT22;4094;49.948;11.574;2023-09-18T03:23:35;21.00;67.60
8103;DHT22;4094;49.948;11.574;2023-09-18T03:26:05;21.00;67.60
8103;DHT22;4094;49.948;11.574;2023-09-18T03:28:35;20.90;67.70
8103;DHT22;4094;49.948;11.574;2023-09-18T03:31:04;20.90;67.80
8103;DHT22;4094;49.948;11.574;2023-09-18T03:33:35;20.90;67.90
8103;DHT22;4094;49.948;11.574;2023-09-18T03:36:05;20.80;68.00
8103;DHT22;4094;49.948;11.574;2023-09-18T03:38:37;20.80;68.00
8103;DHT22;4094;49.948;11.574;2023-09-18T03:41:08;20.80;68.20
8103;DHT22;4094;49.948;11.574;2023-09-18T03:43:37;20.80;68.20
8103;DHT22;4094;49.948;11.574;2023-09-18T03:46:07;20.80;68.20
8103;DHT22;4094;49.948;11.574;2023-09-18T03:48:44;20.70;68.20
8103;DHT22;4094;49.948;11.574;2023-09-18T03:51:14;20.70;68.30
8103;DHT22;4094;49.948;11.574;2023-09-18T03:53:45;20.70;68.40
8103;DHT22;4094;49.948;11.574;2023-09-18T03:56:16;20.70;68.50
8103;DHT22;4094;49.948;11.574;2023-09-18T03:58:45;20.70;68.60
8103;DHT22;4094;49.948;11.574;2023-09-18T04:01:17;20.70;68.50
8103;DHT22;4094;49.948;11.574;2023-09-18T04:03:47;20.70;69.40
8103;DHT22;4094;49.948;11.574;2023-09-18T04:06:16;20.70;68.70
8103;DHT22;4094;49.948;11.574;2023-09-18T04:08:50;20.70;68.60
8103;DHT22;4094;49.948;11.574;2023-09-18T04:11:20;20.70;68.60
8103;DHT22;4094;49.948;11.574;2023-09-18T04:13:53;20.70;68.50
8103;DHT22;4094;49.948;11.574;2023-09-18T04:16:22;20.70;68.50
8103;DHT22;4094;49.948;11.574;2023-09-18T04:18:51;20.70;68.50
8103;DHT22;4094;49.948;11.574;2023-09-18T04:21:21;20.70;68.50
8103;DHT22;4094;49.948;11.574;2023-09-18T04:23:51;20.70;68.50
8103;DHT22;4094;49.948;11.574;2023-09-18T04:26:25;20.70;68.50
8103;DHT22;4094;49.948;11.574;2023-09-18T04:28:58;20.70;68.40
8103;DHT22;4094;49.948;11.574;2023-09-18T04:31:29;20.70;68.40
8103;DHT22;4094;49.948;11.574;2023-09-18T04:33:58;20.70;68.40
8103;DHT22;4094;49.948;11.574;2023-09-18T04:36:28;20.70;68.20
8103;DHT22;4094;49.948;11.574;2023-09-18T04:38:58;20.80;68.10
8103;DHT22;4094;49.948;11.574;2023-09-18T04:41:27;20.80;68.00
8103;DHT22;4094;49.948;11.574;2023-09-18T04:43:56;20.80;67.80
8103;DHT22;4094;49.948;11.574;2023-09-18T04:46:26;20.80;67.50
8103;DHT22;4094;49.948;11.574;2023-09-18T04:48:55;20.90;67.50
8103;DHT22;4094;49.948;11.574;2023-09-18T04:51:24;20.80;67.30
8103;DHT22;4094;49.948;11.574;2023-09-18T04:53:53;20.90;67.20
8103;DHT22;4094;49.948;11.574;2023-09-18T04:56:24;20.90;67.10
8103;DHT22;4094;49.948;11.574;2023-09-18T04:58:54;20.90;67.00
8103;DHT22;4094;49.948;11.574;2023-09-18T05:01:25;20.90;66.90
8103;DHT22;4094;49.948;11.574;2023-09-18T05:03:54;21.00;66.90
8103;DHT22;4094;49.948;11.574;2023-09-18T05:06:23;21.00;66.80
8103;DHT22;4094;49.948;11.574;2023-09-18T05:08:53;21.00;66.60
8103;DHT22;4094;49.948;11.574;2023-09-18T05:11:24;21.00;66.40
8103;DHT22;4094;49.948;11.574;2023-09-18T05:13:53;21.00;66.30
8103;DHT22;4094;49.948;11.574;2023-09-18T05:16:23;21.00;66.30
8103;DHT22;4094;49.948;11.574;2023-09-18T05:18:52;21.00;66.30
8103;DHT22;4094;49.948;11.574;2023-09-18T05:21:21;21.00;66.30
8103;DHT22;4094;49.948;11.574;2023-09-18T05:23:52;21.00;66.20
8103;DHT22;4094;49.948;11.574;2023-09-18T05:26:23;21.00;66.90
8103;DHT22;4094;49.948;11.574;2023-09-18T05:28:53;21.10;66.00
8103;DHT22;4094;49.948;11.574;2023-09-18T05:31:22;21.10;65.80
8103;DHT22;4094;49.948;11.574;2023-09-18T05:33:52;21.10;66.10
8103;DHT22;4094;49.948;11.574;2023-09-18T05:36:21;21.10;66.00
8103;DHT22;4094;49.948;11.574;2023-09-18T05:38:51;21.20;66.20
8103;DHT22;4094;49.948;11.574;2023-09-18T05:41:20;21.20;66.10
8103;DHT22;4094;49.948;11.574;2023-09-18T05:43:55;21.30;66.00
8103;DHT22;4094;49.948;11.574;2023-09-18T05:46:24;21.30;65.80
8103;DHT22;4094;49.948;11.574;2023-09-18T05:48:54;21.30;65.80
8103;DHT22;4094;49.948;11.574;2023-09-18T05:51:25;21.40;65.90
8103;DHT22;4094;49.948;11.574;2023-09-18T05:53:54;21.40;65.90
8103;DHT22;4094;49.948;11.574;2023-09-18T05:56:23;21.50;65.60
8103;DHT22;4094;49.948;11.574;2023-09-18T05:58:52;21.50;65.70
8103;DHT22;4094;49.948;11.574;2023-09-18T06:01:24;21.50;65.50
8103;DHT22;4094;49.948;11.574;2023-09-18T06:03:53;21.60;65.50
8103;DHT22;4094;49.948;11.574;2023-09-18T06:06:23;21.60;65.30
8103;DHT22;4094;49.948;11.574;2023-09-18T06:08:52;21.60;65.00
8103;DHT22;4094;49.948;11.574;2023-09-18T06:11:22;21.70;64.90
8103;DHT22;4094;49.948;11.574;2023-09-18T06:13:51;21.70;64.80
8103;DHT22;4094;49.948;11.574;2023-09-18T06:16:20;21.70;64.70
8103;DHT22;4094;49.948;11.574;2023-09-18T06:18:51;21.80;64.40
8103;DHT22;4094;49.948;11.574;2023-09-18T06:21:21;21.80;64.00
8103;DHT22;4094;49.948;11.574;2023-09-18T06:23:51;21.80;63.90
8103;DHT22;4094;49.948;11.574;2023-09-18T06:26:21;21.80;63.70
8103;DHT22;4094;49.948;11.574;2023-09-18T06:28:50;21.90;63.80
8103;DHT22;4094;49.948;11.574;2023-09-18T06:31:24;21.90;63.50
8103;DHT22;4094;49.948;11.574;2023-09-18T06:33:55;21.90;63.50
8103;DHT22;4094;49.948;11.574;2023-09-18T06:36:24;21.90;63.50
8103;DHT22;4094;49.948;11.574;2023-09-18T06:38:53;21.90;63.40
8103;DHT22;4094;49.948;11.574;2023-09-18T06:41:23;22.00;63.30
8103;DHT22;4094;49.948;11.574;2023-09-18T06:43:52;22.00;63.40
8103;DHT22;4094;49.948;11.574;2023-09-18T06:46:21;22.00;63.80
8103;DHT22;4094;49.948;11.574;2023-09-18T06:48:51;22.10;64.20
8103;DHT22;4094;49.948;11.574;2023-09-18T06:51:22;22.10;63.60
8103;DHT22;4094;49.948;11.574;2023-09-18T06:54:10;22.10;63.10
8103;DHT22;4094;49.948;11.574;2023-09-18T06:56:39;22.20;63.40
8103;DHT22;4094;49.948;11.574;2023-09-18T06:59:09;22.30;63.50
8103;DHT22;4094;49.948;11.574;2023-09-18T07:01:39;22.30;63.60
8103;DHT22;4094;49.948;11.574;2023-09-18T07:04:09;22.30;63.10
8103;DHT22;4094;49.948;11.574;2023-09-18T07:06:40;22.40;62.70
8103;DHT22;4094;49.948;11.574;2023-09-18T07:09:09;22.40;63.00
8103;DHT22;4094;49.948;11.574;2023-09-18T07:11:40;22.40;62.20
8103;DHT22;4094;49.948;11.574;2023-09-18T07:14:09;22.50;62.00
8103;DHT22;4094;49.948;11.574;2023-09-18T07:16:38;22.50;62.00
8103;DHT22;4094;49.948;11.574;2023-09-18T07:19:07;22.40;62.00
8103;DHT22;4094;49.948;11.574;2023-09-18T07:21:40;22.50;62.30
8103;DHT22;4094;49.948;11.574;2023-09-18T07:24:10;22.50;62.10
8103;DHT22;4094;49.948;11.574;2023-09-18T07:26:45;22.60;61.90
8103;DHT22;4094;49.948;11.574;2023-09-18T07:29:15;22.60;61.50
8103;DHT22;4094;49.948;11.574;2023-09-18T07:31:44;22.60;61.10
8103;DHT22;4094;49.948;11.574;2023-09-18T07:34:14;22.70;61.00
8103;DHT22;4094;49.948;11.574;2023-09-18T07:36:46;22.60;61.20
8103;DHT22;4094;49.948;11.574;2023-09-18T07:39:21;22.70;61.20
8103;DHT22;4094;49.948;11.574;2023-09-18T07:41:50;22.70;61.20
8103;DHT22;4094;49.948;11.574;2023-09-18T07:44:21;22.70;61.00
8103;DHT22;4094;49.948;11.574;2023-09-18T07:46:50;22.80;61.00
8103;DHT22;4094;49.948;11.574;2023-09-18T07:49:19;22.80;61.00
8103;DHT22;4094;49.948;11.574;2023-09-18T07:51:49;22.80;60.90
8103;DHT22;4094;49.948;11.574;2023-09-18T07:54:19;22.90;60.80
8103;DHT22;4094;49.948;11.574;2023-09-18T07:56:48;22.90;60.90
8103;DHT22;4094;49.948;11.574;2023-09-18T07:59:17;22.90;60.80
8103;DHT22;4094;49.948;11.574;2023-09-18T08:01:46;23.00;60.90
8103;DHT22;4094;49.948;11.574;2023-09-18T08:04:15;23.10;61.00
8103;DHT22;4094;49.948;11.574;2023-09-18T08:06:45;23.20;61.00
8103;DHT22;4094;49.948;11.574;2023-09-18T08:09:15;23.30;60.70
8103;DHT22;4094;49.948;11.574;2023-09-18T08:11:45;23.30;60.70
8103;DHT22;4094;49.948;11.574;2023-09-18T08:14:14;23.40;60.90
8103;DHT22;4094;49.948;11.574;2023-09-18T08:16:44;23.50;60.60
8103;DHT22;4094;49.948;11.574;2023-09-18T08:19:15;23.50;60.70
8103;DHT22;4094;49.948;11.574;2023-09-18T08:21:45;23.50;60.90
8103;DHT22;4094;49.948;11.574;2023-09-18T08:24:15;23.60;61.10
8103;DHT22;4094;49.948;11.574;2023-09-18T08:26:44;23.70;61.00
8103;DHT22;4094;49.948;11.574;2023-09-18T08:29:13;23.70;60.70
8103;DHT22;4094;49.948;11.574;2023-09-18T08:31:43;23.80;60.70
8103;DHT22;4094;49.948;11.574;2023-09-18T08:34:12;23.90;60.70
8103;DHT22;4094;49.948;11.574;2023-09-18T08:36:42;23.90;60.60
8103;DHT22;4094;49.948;11.574;2023-09-18T08:39:11;23.90;60.70
8103;DHT22;4094;49.948;11.574;2023-09-18T08:41:43;23.90;60.60
8103;DHT22;4094;49.948;11.574;2023-09-18T08:44:12;23.90;60.70
8103;DHT22;4094;49.948;11.574;2023-09-18T08:46:43;23.90;60.70
8103;DHT22;4094;49.948;11.574;2023-09-18T08:49:12;23.90;61.00
8103;DHT22;4094;49.948;11.574;2023-09-18T08:51:42;24.00;61.40
8103;DHT22;4094;49.948;11.574;2023-09-18T08:54:12;24.10;61.80
8103;DHT22;4094;49.948;11.574;2023-09-18T08:56:42;24.10;61.50
8103;DHT22;4094;49.948;11.574;2023-09-18T08:59:12;24.20;61.30
8103;DHT22;4094;49.948;11.574;2023-09-18T09:01:42;24.30;61.10
8103;DHT22;4094;49.948;11.574;2023-09-18T09:04:11;24.40;61.20
8103;DHT22;4094;49.948;11.574;2023-09-18T09:06:40;24.50;61.20
8103;DHT22;4094;49.948;11.574;2023-09-18T09:09:09;24.50;60.90
8103;DHT22;4094;49.948;11.574;2023-09-18T09:11:48;24.60;60.70
8103;DHT22;4094;49.948;11.574;2023-09-18T09:14:18;24.70;60.60
8103;DHT22;4094;49.948;11.574;2023-09-18T09:16:51;24.80;61.10
8103;DHT22;4094;49.948;11.574;2023-09-18T09:19:28;24.80;60.80
8103;DHT22;4094;49.948;11.574;2023-09-18T09:21:58;25.00;60.70
8103;DHT22;4094;49.948;11.574;2023-09-18T09:24:39;25.10;60.50
8103;DHT22;4094;49.948;11.574;2023-09-18T09:27:10;25.20;60.60
8103;DHT22;4094;49.948;11.574;2023-09-18T09:29:41;25.20;60.20
8103;DHT22;4094;49.948;11.574;2023-09-18T09:32:15;25.30;60.10
8103;DHT22;4094;49.948;11.574;2023-09-18T09:34:45;25.40;60.60
8103;DHT22;4094;49.948;11.574;2023-09-18T09:37:15;25.50;60.70
8103;DHT22;4094;49.948;11.574;2023-09-18T09:39:48;25.60;60.60
8103;DHT22;4094;49.948;11.574;2023-09-18T09:42:20;25.70;60.50
8103;DHT22;4094;49.948;11.574;2023-09-18T09:45:02;25.80;60.40
8103;DHT22;4094;49.948;11.574;2023-09-18T09:47:34;25.90;60.50
8103;DHT22;4094;49.948;11.574;2023-09-18T09:50:08;26.00;60.60
8103;DHT22;4094;49.948;11.574;2023-09-18T09:52:43;26.20;59.80
8103;DHT22;4094;49.948;11.574;2023-09-18T09:55:19;26.30;59.90
8103;DHT22;4094;49.948;11.574;2023-09-18T09:57:53;26.40;59.50
8103;DHT22;4094;49.948;11.574;2023-09-18T10:00:26;26.50;58.90
8103;DHT22;4094;49.948;11.574;2023-09-18T10:03:01;26.60;58.00
8103;DHT22;4094;49.948;11.574;2023-09-18T10:05:32;26.70;57.70
8103;DHT22;4094;49.948;11.574;2023-09-18T10:08:06;26.80;57.00
8103;DHT22;4094;49.948;11.574;2023-09-18T10:10:37;26.90;57.10
8103;DHT22;4094;49.948;11.574;2023-09-18T10:13:15;27.10;56.90
8103;DHT22;4094;49.948;11.574;2023-09-18T10:15:45;27.20;56.60
8103;DHT22;4094;49.948;11.574;2023-09-18T10:18:22;27.30;56.40
8103;DHT22;4094;49.948;11.574;2023-09-18T10:20:59;27.40;56.20
8103;DHT22;4094;49.948;11.574;2023-09-18T10:23:38;27.60;56.10
8103;DHT22;4094;49.948;11.574;2023-09-18T10:26:14;27.70;55.90
8103;DHT22;4094;49.948;11.574;2023-09-18T10:28:49;27.70;55.30
8103;DHT22;4094;49.948;11.574;2023-09-18T10:31:21;27.80;55.50
8103;DHT22;4094;49.948;11.574;2023-09-18T10:33:51;27.80;55.60
8103;DHT22;4094;49.948;11.574;2023-09-18T10:36:24;27.80;55.10
8103;DHT22;4094;49.948;11.574;2023-09-18T10:38:55;27.80;54.90
8103;DHT22;4094;49.948;11.574;2023-09-18T10:41:26;27.90;55.00
8103;DHT22;4094;49.948;11.574;2023-09-18T10:43:58;27.80;54.20
8103;DHT22;4094;49.948;11.574;2023-09-18T10:46:28;27.80;54.70
8103;DHT22;4094;49.948;11.574;2023-09-18T10:48:58;27.80;54.60
8103;DHT22;4094;49.948;11.574;2023-09-18T10:51:32;27.80;54.00
8103;DHT22;4094;49.948;11.574;2023-09-18T10:54:02;27.80;53.80
8103;DHT22;4094;49.948;11.574;2023-09-18T10:56:31;27.80;53.50
8103;DHT22;4094;49.948;11.574;2023-09-18T10:59:08;27.80;53.60
8103;DHT22;4094;49.948;11.574;2023-09-18T11:01:37;27.80;53.30
8103;DHT22;4094;49.948;11.574;2023-09-18T11:04:07;27.80;53.50
8103;DHT22;4094;49.948;11.574;2023-09-18T11:07:03;27.80;53.30
8103;DHT22;4094;49.948;11.574;2023-09-18T11:09:42;27.70;53.00
8103;DHT22;4094;49.948;11.574;2023-09-18T11:12:12;27.70;53.10
8103;DHT22;4094;49.948;11.574;2023-09-18T11:14:49;27.60;53.30
8103;DHT22;4094;49.948;11.574;2023-09-18T11:17:33;27.60;53.10
8103;DHT22;4094;49.948;11.574;2023-09-18T11:20:08;27.50;52.80
8103;DHT22;4094;49.948;11.574;2023-09-18T11:22:46;27.50;52.90
8103;DHT22;4094;49.948;11.574;2023-09-18T11:25:35;27.40;53.10
8103;DHT22;4094;49.948;11.574;2023-09-18T11:28:06;27.40;53.30
8103;DHT22;4094;49.948;11.574;2023-09-18T11:30:37;27.40;53.40
8103;DHT22;4094;49.948;11.574;2023-09-18T11:33:09;27.30;53.40
8103;DHT22;4094;49.948;11.574;2023-09-18T11:35:38;27.30;53.70
8103;DHT22;4094;49.948;11.574;2023-09-18T11:38:10;27.30;53.90
8103;DHT22;4094;49.948;11.574;2023-09-18T11:40:40;27.30;53.90
8103;DHT22;4094;49.948;11.574;2023-09-18T11:43:24;27.40;53.90
8103;DHT22;4094;49.948;11.574;2023-09-18T11:45:57;27.40;53.80
8103;DHT22;4094;49.948;11.574;2023-09-18T11:48:28;27.40;53.90
8103;DHT22;4094;49.948;11.574;2023-09-18T11:50:58;27.40;53.80
8103;DHT22;4094;49.948;11.574;2023-09-18T11:53:34;27.50;54.00
8103;DHT22;4094;49.948;11.574;2023-09-18T11:56:10;27.60;54.20
8103;DHT22;4094;49.948;11.574;2023-09-18T11:58:46;27.60;53.80
8103;DHT22;4094;49.948;11.574;2023-09-18T12:01:17;27.60;53.70
8103;DHT22;4094;49.948;11.574;2023-09-18T12:03:53;27.60;53.60
8103;DHT22;4094;49.948;11.574;2023-09-18T12:06:22;27.50;53.40
8103;DHT22;4094;49.948;11.574;2023-09-18T12:08:51;27.50;53.50
8103;DHT22;4094;49.948;11.574;2023-09-18T12:11:21;27.40;53.60
8103;DHT22;4094;49.948;11.574;2023-09-18T12:13:51;27.40;53.10
8103;DHT22;4094;49.948;11.574;2023-09-18T12:16:22;27.40;52.40
8103;DHT22;4094;49.948;11.574;2023-09-18T12:18:51;27.30;52.20
8103;DHT22;4094;49.948;11.574;2023-09-18T12:21:19;27.30;52.10
8103;DHT22;4094;49.948;11.574;2023-09-18T12:23:48;27.30;52.10
8103;DHT22;4094;49.948;11.574;2023-09-18T12:26:18;27.20;51.70
8103;DHT22;4094;49.948;11.574;2023-09-18T12:28:48;27.20;51.90
8103;DHT22;4094;49.948;11.574;2023-09-18T12:31:18;27.10;51.80
8103;DHT22;4094;49.948;11.574;2023-09-18T12:33:48;27.10;51.70
8103;DHT22;4094;49.948;11.574;2023-09-18T12:36:19;27.00;51.60
8103;DHT22;4094;49.948;11.574;2023-09-18T12:38:55;27.00;51.80
8103;DHT22;4094;49.948;11.574;2023-09-18T12:41:25;26.90;51.90
8103;DHT22;4094;49.948;11.574;2023-09-18T12:43:59;26.90;52.00
8103;DHT22;4094;49.948;11.574;2023-09-18T12:46:31;26.80;52.20
8103;DHT22;4094;49.948;11.574;2023-09-18T12:49:17;26.80;52.30
8103;DHT22;4094;49.948;11.574;2023-09-18T12:51:56;26.80;52.20
8103;DHT22;4094;49.948;11.574;2023-09-18T12:54:39;26.80;52.10
8103;DHT22;4094;49.948;11.574;2023-09-18T12:57:10;26.70;52.40
8103;DHT22;4094;49.948;11.574;2023-09-18T12:59:39;26.70;52.20
8103;DHT22;4094;49.948;11.574;2023-09-18T13:02:13;26.60;52.30
8103;DHT22;4094;49.948;11.574;2023-09-18T13:04:51;26.60;52.50
8103;DHT22;4094;49.948;11.574;2023-09-18T13:07:21;26.50;52.70
8103;DHT22;4094;49.948;11.574;2023-09-18T13:10:00;26.50;53.20
8103;DHT22;4094;49.948;11.574;2023-09-18T13:12:48;26.40;53.70
8103;DHT22;4094;49.948;11.574;2023-09-18T13:15:26;26.30;54.40
8103;DHT22;4094;49.948;11.574;2023-09-18T13:17:58;26.30;55.10
8103;DHT22;4094;49.948;11.574;2023-09-18T13:20:29;26.20;55.50
8103;DHT22;4094;49.948;11.574;2023-09-18T13:23:00;26.10;55.50
8103;DHT22;4094;49.948;11.574;2023-09-18T13:25:33;26.00;55.90
8103;DHT22;4094;49.948;11.574;2023-09-18T13:28:04;25.90;56.30
8103;DHT22;4094;49.948;11.574;2023-09-18T13:30:36;25.70;56.60
8103;DHT22;4094;49.948;11.574;2023-09-18T13:33:08;25.70;57.40
8103;DHT22;4094;49.948;11.574;2023-09-18T13:35:41;25.60;57.80
8103;DHT22;4094;49.948;11.574;2023-09-18T13:38:11;25.40;57.60
8103;DHT22;4094;49.948;11.574;2023-09-18T13:40:43;25.40;57.90
8103;DHT22;4094;49.948;11.574;2023-09-18T13:43:14;25.30;58.10
8103;DHT22;4094;49.948;11.574;2023-09-18T13:45:44;25.20;58.20
8103;DHT22;4094;49.948;11.574;2023-09-18T13:48:13;25.10;58.70
8103;DHT22;4094;49.948;11.574;2023-09-18T13:50:44;25.10;59.10
8103;DHT22;4094;49.948;11.574;2023-09-18T13:53:14;25.00;59.60
8103;DHT22;4094;49.948;11.574;2023-09-18T13:55:43;24.90;59.30
8103;DHT22;4094;49.948;11.574;2023-09-18T13:58:13;24.80;59.70
8103;DHT22;4094;49.948;11.574;2023-09-18T14:00:42;24.80;60.00
8103;DHT22;4094;49.948;11.574;2023-09-18T14:03:11;24.70;60.10
8103;DHT22;4094;49.948;11.574;2023-09-18T14:05:44;24.60;60.50
8103;DHT22;4094;49.948;11.574;2023-09-18T14:08:14;24.60;60.70
8103;DHT22;4094;49.948;11.574;2023-09-18T14:10:43;24.50;60.60
8103;DHT22;4094;49.948;11.574;2023-09-18T14:13:12;24.50;61.20
8103;DHT22;4094;49.948;11.574;2023-09-18T14:15:41;24.40;61.80
8103;DHT22;4094;49.948;11.574;2023-09-18T14:18:10;24.30;62.60
8103;DHT22;4094;49.948;11.574;2023-09-18T14:20:41;24.30;63.20
8103;DHT22;4094;49.948;11.574;2023-09-18T14:23:11;24.20;63.10
8103;DHT22;4094;49.948;11.574;2023-09-18T14:25:40;24.20;63.10
8103;DHT22;4094;49.948;11.574;2023-09-18T14:28:09;24.10;63.60
8103;DHT22;4094;49.948;11.574;2023-09-18T14:30:39;24.10;63.90
8103;DHT22;4094;49.948;11.574;2023-09-18T14:33:08;24.00;63.60
8103;DHT22;4094;49.948;11.574;2023-09-18T14:35:37;23.90;64.10
8103;DHT22;4094;49.948;11.574;2023-09-18T14:38:07;23.90;64.60
8103;DHT22;4094;49.948;11.574;2023-09-18T14:40:40;23.80;64.80
8103;DHT22;4094;49.948;11.574;2023-09-18T14:43:09;23.80;65.40
8103;DHT22;4094;49.948;11.574;2023-09-18T14:45:39;23.80;65.10
8103;DHT22;4094;49.948;11.574;2023-09-18T14:48:08;23.70;65.40
8103;DHT22;4094;49.948;11.574;2023-09-18T14:50:38;23.70;65.70
8103;DHT22;4094;49.948;11.574;2023-09-18T14:53:07;23.60;66.10
8103;DHT22;4094;49.948;11.574;2023-09-18T14:55:37;23.60;66.10
8103;DHT22;4094;49.948;11.574;2023-09-18T14:58:08;23.60;66.00
8103;DHT22;4094;49.948;11.574;2023-09-18T15:00:37;23.50;65.80
8103;DHT22;4094;49.948;11.574;2023-09-18T15:03:06;23.40;66.00
8103;DHT22;4094;49.948;11.574;2023-09-18T15:05:35;23.30;66.20
8103;DHT22;4094;49.948;11.574;2023-09-18T15:08:06;23.30;66.30
8103;DHT22;4094;49.948;11.574;2023-09-18T15:10:35;23.20;66.50
8103;DHT22;4094;49.948;11.574;2023-09-18T15:13:05;23.20;66.70
8103;DHT22;4094;49.948;11.574;2023-09-18T15:15:34;23.10;67.10
8103;DHT22;4094;49.948;11.574;2023-09-18T15:18:04;23.10;67.50
8103;DHT22;4094;49.948;11.574;2023-09-18T15:20:33;23.10;67.60
8103;DHT22;4094;49.948;11.574;2023-09-18T15:23:02;23.00;67.40
8103;DHT22;4094;49.948;11.574;2023-09-18T15:25:33;23.00;67.80
8103;DHT22;4094;49.948;11.574;2023-09-18T15:28:07;22.90;68.10
8103;DHT22;4094;49.948;11.574;2023-09-18T15:30:36;22.90;68.50
8103;DHT22;4094;49.948;11.574;2023-09-18T15:33:05;22.80;68.40
8103;DHT22;4094;49.948;11.574;2023-09-18T15:35:34;22.80;68.90
8103;DHT22;4094;49.948;11.574;2023-09-18T15:38:04;22.80;69.00
8103;DHT22;4094;49.948;11.574;2023-09-18T15:40:34;22.80;69.00
8103;DHT22;4094;49.948;11.574;2023-09-18T15:43:04;22.70;68.90
8103;DHT22;4094;49.948;11.574;2023-09-18T15:45:35;22.70;68.80
8103;DHT22;4094;49.948;11.574;2023-09-18T15:48:05;22.70;69.10
8103;DHT22;4094;49.948;11.574;2023-09-18T15:50:34;22.60;69.30
8103;DHT22;4094;49.948;11.574;2023-09-18T15:53:06;22.70;69.60
8103;DHT22;4094;49.948;11.574;2023-09-18T15:55:35;22.60;69.70
8103;DHT22;4094;49.948;11.574;2023-09-18T15:58:04;22.60;69.70
8103;DHT22;4094;49.948;11.574;2023-09-18T16:00:36;22.60;69.80
8103;DHT22;4094;49.948;11.574;2023-09-18T16:03:06;22.60;70.00
8103;DHT22;4094;49.948;11.574;2023-09-18T16:05:35;22.60;69.90
8103;DHT22;4094;49.948;11.574;2023-09-18T16:08:05;22.50;70.10